createdAt,value
2019-04-26T00:00:45.530Z,74.73
2019-04-26T00:03:16.781Z,74.32
2019-04-26T00:05:46.224Z,73.42
2019-04-26T00:08:17.831Z,74.15
2019-04-26T00:11:18.219Z,73.98
2019-04-26T00:14:16.266Z,73.63
2019-04-26T00:17:08.017Z,73.57
2019-04-26T00:19:38.461Z,73.55
2019-04-26T00:22:07.985Z,74.24
2019-04-26T00:24:37.619Z,74.57
2019-04-26T00:27:06.920Z,74.01
2019-04-26T00:29:36.177Z,73.34
2019-04-26T00:32:05.376Z,73.53
2019-04-26T00:34:36.291Z,73.53
2019-04-26T00:37:05.544Z,74.32
2019-04-26T00:39:34.757Z,74.15
2019-04-26T00:42:04.338Z,73.58
2019-04-26T00:44:33.555Z,73.26
2019-04-26T00:47:04.595Z,74.22
2019-04-26T00:49:43.590Z,74.33
2019-04-26T00:52:07.752Z,74.51
2019-04-26T00:54:37.044Z,73.34
2019-04-26T00:57:06.493Z,73.12
2019-04-26T00:59:36.876Z,73.39
2019-04-26T01:02:15.314Z,74.71
2019-04-26T01:04:45.531Z,74.11
2019-04-26T01:07:15.653Z,73.69
2019-04-26T01:09:44.929Z,73.95
2019-04-26T01:12:14.102Z,74.17
2019-04-26T01:14:43.289Z,74.40
2019-04-26T01:17:12.495Z,74.28
2019-04-26T01:19:42.281Z,74.68
2019-04-26T01:22:16.805Z,74.58
2019-04-26T01:24:48.375Z,74.80
2019-04-26T01:27:19.588Z,76.17
2019-04-26T01:29:50.335Z,75.79
2019-04-26T01:32:20.314Z,75.96
2019-04-26T01:34:51.094Z,76.03
2019-04-26T01:37:20.609Z,76.14
2019-04-26T01:39:54.201Z,76.53
2019-04-26T01:42:48.655Z,76.74
2019-04-26T01:45:23.631Z,77.14
2019-04-26T01:47:55.402Z,77.37
2019-04-26T01:50:26.083Z,76.97
2019-04-26T01:52:56.199Z,76.76
2019-04-26T01:55:27.026Z,77.03
2019-04-26T01:57:59.439Z,76.81
2019-04-26T02:00:46.136Z,77.04
2019-04-26T02:03:23.781Z,77.23
2019-04-26T02:05:54.481Z,77.97
2019-04-26T02:08:24.550Z,77.73
2019-04-26T02:10:53.952Z,77.95
2019-04-26T02:13:25.191Z,78.51
2019-04-26T02:15:54.471Z,77.54
2019-04-26T02:18:24.070Z,77.75
2019-04-26T02:21:07.056Z,77.48
2019-04-26T02:23:55.192Z,76.94
2019-04-26T02:26:38.384Z,77.07
2019-04-26T02:29:14.413Z,77.47
2019-04-26T02:31:45.367Z,78.02
2019-04-26T02:34:14.546Z,77.38
2019-04-26T02:36:58.032Z,77.76
2019-04-26T02:39:23.147Z,79.05
2019-04-26T02:41:55.122Z,78.39
2019-04-26T02:44:29.053Z,78.27
2019-04-26T02:47:30.961Z,78.17
2019-04-26T02:50:04.661Z,77.88
2019-04-26T02:52:57.933Z,78.00
2019-04-26T02:56:07.779Z,78.27
2019-04-26T02:59:03.167Z,79.42
2019-04-26T03:01:34.490Z,79.00
2019-04-26T03:04:03.443Z,78.88
2019-04-26T03:06:34.999Z,78.35
2019-04-26T03:09:07.109Z,78.08
2019-04-26T03:11:39.250Z,77.70
2019-04-26T03:14:27.510Z,77.62
2019-04-26T03:17:09.883Z,77.77
2019-04-26T03:19:54.082Z,77.80
2019-04-26T03:22:44.112Z,77.78
2019-04-26T03:25:21.409Z,77.96
2019-04-26T03:28:43.717Z,78.20
2019-04-26T03:31:27.788Z,77.69
2019-04-26T03:34:22.305Z,77.02
2019-04-26T03:37:47.305Z,77.98
2019-04-26T03:40:36.862Z,78.34
2019-04-26T03:43:28.873Z,77.46
2019-04-26T03:46:16.476Z,77.75
2019-04-26T03:48:59.458Z,77.52
2019-04-26T03:51:48.044Z,78.50
2019-04-26T03:54:20.857Z,77.18
2019-04-26T03:57:13.233Z,77.75
2019-04-26T03:59:55.767Z,77.24
2019-04-26T04:02:54.360Z,77.02
2019-04-26T04:05:37.939Z,77.18
2019-04-26T04:08:10.884Z,77.42
2019-04-26T04:11:05.408Z,76.53
2019-04-26T04:14:15.759Z,76.73
2019-04-26T04:17:05.303Z,76.56
2019-04-26T04:20:38.309Z,77.08
2019-04-26T04:23:52.701Z,76.95
2019-04-26T04:26:28.406Z,76.35
2019-04-26T04:29:39.110Z,76.82
2019-04-26T04:31:58.599Z,77.09
2019-04-26T04:34:34.383Z,76.95
2019-04-26T04:37:05.136Z,76.96
2019-04-26T04:39:53.548Z,76.85
2019-04-26T04:42:48.111Z,77.03
2019-04-26T04:46:11.994Z,76.92
2019-04-26T04:49:22.925Z,76.31
2019-04-26T04:52:19.600Z,76.47
2019-04-26T04:55:06.433Z,76.86
2019-04-26T04:58:02.527Z,78.23
2019-04-26T05:01:19.845Z,78.33
2019-04-26T05:04:02.524Z,78.48
2019-04-26T05:07:15.417Z,78.86
2019-04-26T05:10:05.791Z,79.00
2019-04-26T05:13:02.664Z,80.14
2019-04-26T05:16:13.573Z,80.24
2019-04-26T05:18:58.951Z,79.71
2019-04-26T05:21:57.368Z,80.28
2019-04-26T05:24:51.228Z,80.51
2019-04-26T05:28:02.492Z,79.82
2019-04-26T05:31:16.252Z,80.23
2019-04-26T05:34:14.667Z,79.83
2019-04-26T05:37:00.535Z,79.77
2019-04-26T05:39:37.691Z,79.62
2019-04-26T05:43:12.481Z,80.25
2019-04-26T05:46:42.243Z,80.87
2019-04-26T05:49:44.729Z,80.71
2019-04-26T05:52:51.823Z,80.48
2019-04-26T05:56:03.186Z,81.14
2019-04-26T05:58:52.813Z,81.28
2019-04-26T06:01:32.337Z,81.84
2019-04-26T06:04:45.185Z,81.77
2019-04-26T06:07:24.466Z,81.69
2019-04-26T06:10:30.854Z,81.23
2019-04-26T06:13:05.221Z,80.94
2019-04-26T06:15:58.745Z,79.77
2019-04-26T06:18:51.680Z,80.21
2019-04-26T06:21:25.098Z,80.45
2019-04-26T06:23:59.903Z,80.48
2019-04-26T06:27:13.386Z,80.24
2019-04-26T06:29:38.682Z,80.30
2019-04-26T06:32:11.778Z,80.67
2019-04-26T06:34:45.525Z,81.37
2019-04-26T06:37:21.391Z,81.69
2019-04-26T06:39:57.922Z,81.79
2019-04-26T06:42:40.872Z,81.58
2019-04-26T06:45:44.672Z,82.06
2019-04-26T06:48:22.900Z,81.92
2019-04-26T06:50:55.903Z,81.87
2019-04-26T06:53:46.383Z,82.20
2019-04-26T06:56:38.904Z,82.54
2019-04-26T06:59:36.328Z,82.96
2019-04-26T07:02:02.932Z,83.35
2019-04-26T07:04:41.407Z,83.39
2019-04-26T07:07:11.422Z,82.33
2019-04-26T07:09:49.275Z,82.59
2019-04-26T07:12:50.817Z,82.79
2019-04-26T07:15:56.432Z,82.87
2019-04-26T07:18:28.633Z,82.82
2019-04-26T07:21:35.402Z,82.48
2019-04-26T07:24:24.772Z,82.76
2019-04-26T07:27:01.254Z,82.69
2019-04-26T07:29:48.392Z,82.59
2019-04-26T07:32:21.243Z,82.39
2019-04-26T07:35:08.804Z,82.11
2019-04-26T07:38:05.172Z,81.77
2019-04-26T07:41:09.330Z,81.25
2019-04-26T07:43:57.394Z,81.42
2019-04-26T07:46:50.787Z,81.17
2019-04-26T07:49:46.675Z,80.75
2019-04-26T07:52:24.024Z,80.81
2019-04-26T07:55:11.371Z,80.10
2019-04-26T07:57:57.606Z,80.01
2019-04-26T08:00:30.570Z,79.00
2019-04-26T08:03:15.177Z,78.23
2019-04-26T08:05:45.309Z,78.83
2019-04-26T08:08:15.051Z,78.35
2019-04-26T08:10:46.277Z,77.55
2019-04-26T08:13:15.550Z,77.45
2019-04-26T08:16:10.530Z,76.63
2019-04-26T08:18:42.745Z,76.18
2019-04-26T08:21:23.008Z,76.13
2019-04-26T08:24:19.060Z,75.78
2019-04-26T08:26:49.350Z,75.35
2019-04-26T08:29:17.574Z,75.22
2019-04-26T08:31:45.829Z,73.92
2019-04-26T08:34:16.502Z,73.86
2019-04-26T08:36:51.695Z,72.62
2019-04-26T08:39:28.244Z,72.18
2019-04-26T08:41:53.924Z,72.25
2019-04-26T08:44:34.556Z,71.76
2019-04-26T08:47:24.009Z,73.45
2019-04-26T08:50:04.085Z,73.43
2019-04-26T08:52:33.325Z,73.65
2019-04-26T08:55:01.565Z,73.95
2019-04-26T08:57:31.050Z,72.60
2019-04-26T08:59:59.656Z,73.45
2019-04-26T09:02:55.697Z,72.25
2019-04-26T09:06:01.689Z,72.44
2019-04-26T09:08:31.952Z,72.89
2019-04-26T09:11:00.690Z,71.13
2019-04-26T09:13:30.808Z,72.25
2019-04-26T09:16:03.756Z,72.32
2019-04-26T09:18:42.309Z,71.94
2019-04-26T09:21:01.898Z,70.26
2019-04-26T09:23:51.872Z,69.42
2019-04-26T09:26:27.587Z,68.71
2019-04-26T09:29:04.056Z,68.45
2019-04-26T09:31:37.509Z,68.20
2019-04-26T09:34:10.404Z,68.20
2019-04-26T09:36:37.001Z,68.19
2019-04-26T09:39:08.359Z,68.24
2019-04-26T09:41:36.978Z,68.73
2019-04-26T09:44:12.023Z,67.74
2019-04-26T09:46:54.365Z,68.76
2019-04-26T09:49:47.597Z,66.35
2019-04-26T09:52:19.022Z,65.78
2019-04-26T09:54:47.240Z,66.21
2019-04-26T09:57:15.466Z,65.37
2019-04-26T09:59:43.726Z,63.66
2019-04-26T10:02:12.149Z,61.59
2019-04-26T10:04:40.402Z,62.18
2019-04-26T10:07:08.615Z,63.27
2019-04-26T10:09:36.915Z,64.28
2019-04-26T10:12:16.115Z,63.18
2019-04-26T10:14:50.221Z,63.43
2019-04-26T10:17:22.336Z,62.28
2019-04-26T10:19:52.627Z,60.09
2019-04-26T10:22:21.733Z,59.66
2019-04-26T10:24:50.142Z,60.09
2019-04-26T10:27:18.698Z,62.90
2019-04-26T10:29:46.967Z,60.66
2019-04-26T10:32:15.189Z,60.64
2019-04-26T10:34:47.489Z,61.72
2019-04-26T10:37:13.310Z,59.29
2019-04-26T10:39:41.564Z,59.90
2019-04-26T10:42:09.844Z,59.94
2019-04-26T10:44:39.943Z,60.79
2019-04-26T10:47:08.128Z,60.56
2019-04-26T10:49:39.992Z,61.33
2019-04-26T10:52:11.901Z,59.68
2019-04-26T10:54:41.027Z,60.02
2019-04-26T10:57:20.049Z,60.34
2019-04-26T10:59:54.381Z,60.76
2019-04-26T11:02:22.707Z,61.60
2019-04-26T11:04:51.144Z,61.84
2019-04-26T11:07:19.426Z,61.98
2019-04-26T11:09:47.717Z,62.06
2019-04-26T11:12:17.584Z,61.61
2019-04-26T11:14:45.954Z,61.05
2019-04-26T11:17:16.090Z,60.94
2019-04-26T11:19:44.382Z,61.08
2019-04-26T11:22:12.528Z,61.92
2019-04-26T11:24:40.908Z,62.32
2019-04-26T11:27:09.599Z,61.38
2019-04-26T11:29:38.996Z,61.37
2019-04-26T11:32:07.353Z,60.82
2019-04-26T11:34:35.595Z,60.13
2019-04-26T11:37:04.986Z,61.92
2019-04-26T11:39:36.602Z,62.14
2019-04-26T11:42:03.095Z,62.24
2019-04-26T11:44:31.355Z,62.69
2019-04-26T11:47:03.254Z,62.76
2019-04-26T11:49:29.488Z,64.06
2019-04-26T11:51:58.604Z,62.10
2019-04-26T11:54:27.730Z,62.04
2019-04-26T11:56:56.165Z,62.40
2019-04-26T11:59:27.044Z,61.95
2019-04-26T12:01:54.249Z,61.04
2019-04-26T12:04:53.697Z,61.11
2019-04-26T12:07:23.496Z,60.50
2019-04-26T12:09:53.480Z,61.53
2019-04-26T12:12:21.696Z,61.02
2019-04-26T12:14:49.959Z,61.37
2019-04-26T12:17:18.199Z,61.14
2019-04-26T12:19:48.135Z,60.41
2019-04-26T12:22:16.304Z,59.98
2019-04-26T12:24:44.517Z,59.75
2019-04-26T12:27:12.834Z,59.56
2019-04-26T12:29:44.223Z,59.29
2019-04-26T12:32:10.975Z,59.46
2019-04-26T12:34:39.487Z,59.76
2019-04-26T12:37:07.733Z,60.31
2019-04-26T12:39:36.612Z,58.73
2019-04-26T12:42:08.162Z,58.15
2019-04-26T12:44:51.740Z,57.65
2019-04-26T12:47:23.807Z,59.01
2019-04-26T12:49:54.569Z,57.07
2019-04-26T12:52:22.827Z,57.75
2019-04-26T12:54:51.122Z,57.61
2019-04-26T12:57:20.117Z,58.01
2019-04-26T12:59:48.382Z,54.96
2019-04-26T13:02:20.914Z,53.49
2019-04-26T13:04:48.565Z,53.15
2019-04-26T13:07:24.001Z,54.33
2019-04-26T13:10:06.223Z,53.68
2019-04-26T13:12:44.312Z,54.29
2019-04-26T13:15:39.945Z,53.76
2019-04-26T13:18:11.207Z,53.55
2019-04-26T13:20:38.078Z,56.32
2019-04-26T13:23:06.419Z,57.49
2019-04-26T13:25:40.419Z,56.13
2019-04-26T13:28:04.523Z,55.41
2019-04-26T13:30:33.272Z,55.61
2019-04-26T13:33:01.545Z,57.01
2019-04-26T13:35:29.808Z,57.49
2019-04-26T13:37:58.091Z,56.64
2019-04-26T13:40:29.479Z,55.46
2019-04-26T13:42:56.222Z,55.67
2019-04-26T13:45:38.349Z,55.49
2019-04-26T13:48:34.738Z,55.26
2019-04-26T13:51:07.945Z,54.46
2019-04-26T13:53:36.166Z,54.73
2019-04-26T13:56:04.428Z,52.32
2019-04-26T13:58:32.790Z,52.84
2019-04-26T14:01:02.126Z,51.85
2019-04-26T14:03:31.768Z,50.83
2019-04-26T14:06:00.252Z,49.60
2019-04-26T14:08:28.626Z,48.65
2019-04-26T14:10:56.872Z,48.42
2019-04-26T14:13:26.111Z,46.67
2019-04-26T14:15:54.358Z,48.24
2019-04-26T14:18:22.589Z,45.99
2019-04-26T14:20:54.732Z,44.88
2019-04-26T14:23:40.845Z,44.97
2019-04-26T14:26:12.306Z,47.58
2019-04-26T14:28:42.009Z,47.41
2019-04-26T14:31:12.271Z,45.41
2019-04-26T14:33:40.317Z,44.76
2019-04-26T14:36:17.464Z,44.98
2019-04-26T14:38:40.074Z,43.36
2019-04-26T14:41:08.440Z,45.55
2019-04-26T14:43:41.160Z,43.37
2019-04-26T14:46:10.450Z,38.39
2019-04-26T14:48:40.620Z,39.32
2019-04-26T14:51:12.539Z,42.20
2019-04-26T14:53:39.600Z,41.28
2019-04-26T14:56:08.778Z,42.37
2019-04-26T14:58:38.106Z,43.60
2019-04-26T15:01:13.509Z,42.96
2019-04-26T15:04:02.847Z,41.29
2019-04-26T15:06:35.601Z,43.26
2019-04-26T15:09:18.107Z,44.79
2019-04-26T15:11:52.753Z,46.19
2019-04-26T15:14:12.756Z,47.23
2019-04-26T15:16:44.961Z,45.37
2019-04-26T15:19:14.285Z,45.74
2019-04-26T15:21:43.639Z,44.92
2019-04-26T15:24:12.926Z,47.78
2019-04-26T15:26:42.146Z,47.63
2019-04-26T15:29:13.154Z,47.90
2019-04-26T15:31:42.555Z,46.54
2019-04-26T15:34:12.148Z,48.39
2019-04-26T15:36:43.516Z,48.66
2019-04-26T15:39:25.776Z,48.23
2019-04-26T15:42:25.225Z,49.08
2019-04-26T15:45:13.112Z,48.84
2019-04-26T15:47:59.711Z,50.40
2019-04-26T15:50:36.009Z,51.49
2019-04-26T15:53:06.609Z,50.79
2019-04-26T15:55:39.957Z,51.52
2019-04-26T15:58:08.459Z,50.44
2019-04-26T16:00:38.620Z,50.70
2019-04-26T16:03:07.867Z,51.68
2019-04-26T16:05:37.002Z,52.41
2019-04-26T16:08:06.222Z,51.45
2019-04-26T16:10:38.406Z,50.86
2019-04-26T16:13:17.956Z,52.47
2019-04-26T16:15:37.426Z,52.58
2019-04-26T16:18:10.588Z,49.91
2019-04-26T16:20:42.801Z,50.11
2019-04-26T16:23:13.222Z,49.63
2019-04-26T16:25:42.814Z,48.22
2019-04-26T16:28:38.457Z,47.91
2019-04-26T16:31:28.777Z,47.77
2019-04-26T16:34:04.125Z,44.99
2019-04-26T16:36:32.309Z,44.45
2019-04-26T16:39:06.149Z,44.81
2019-04-26T16:41:37.839Z,45.99
2019-04-26T16:44:06.490Z,43.73
2019-04-26T16:46:35.661Z,44.12
2019-04-26T16:49:06.283Z,44.21
2019-04-26T16:51:36.020Z,44.74
2019-04-26T16:54:08.668Z,45.57
2019-04-26T16:56:37.293Z,42.81
2019-04-26T16:59:06.509Z,42.71
2019-04-26T17:01:38.213Z,41.97
2019-04-26T17:04:11.144Z,40.04
2019-04-26T17:06:44.285Z,39.86
2019-04-26T17:09:10.145Z,40.88
2019-04-26T17:11:41.422Z,39.70
2019-04-26T17:14:11.261Z,41.71
2019-04-26T17:16:42.425Z,43.37
2019-04-26T17:19:11.859Z,43.90
2019-04-26T17:21:49.373Z,46.21
2019-04-26T17:24:43.787Z,46.14
2019-04-26T17:27:14.678Z,45.30
2019-04-26T17:29:43.831Z,43.45
2019-04-26T17:32:15.730Z,42.69
2019-04-26T17:34:44.098Z,44.54
2019-04-26T17:37:17.216Z,43.87
2019-04-26T17:39:47.606Z,42.42
2019-04-26T17:42:15.221Z,43.20
2019-04-26T17:44:44.443Z,45.55
2019-04-26T17:47:13.638Z,45.09
2019-04-26T17:49:44.005Z,44.03
2019-04-26T17:52:13.876Z,47.68
2019-04-26T17:54:49.282Z,46.83
2019-04-26T17:57:15.850Z,47.06
2019-04-26T17:59:48.932Z,47.99
2019-04-26T18:02:31.539Z,49.02
2019-04-26T18:04:58.184Z,46.17
2019-04-26T18:07:37.185Z,44.80
2019-04-26T18:09:50.709Z,47.61
2019-04-26T18:12:20.692Z,48.59
2019-04-26T18:14:49.995Z,46.69
2019-04-26T18:17:38.796Z,47.83
2019-04-26T18:20:23.598Z,47.58
2019-04-26T18:22:57.168Z,48.13
2019-04-26T18:25:26.450Z,49.58
2019-04-26T18:27:55.866Z,49.60
2019-04-26T18:30:26.553Z,50.22
2019-04-26T18:32:55.939Z,52.94
2019-04-26T18:35:25.254Z,53.39
2019-04-26T18:37:54.657Z,55.39
2019-04-26T18:40:24.098Z,54.86
2019-04-26T18:42:55.097Z,56.36
2019-04-26T18:45:28.811Z,57.38
2019-04-26T18:48:01.079Z,58.73
2019-04-26T18:50:28.408Z,59.49
2019-04-26T18:53:26.520Z,60.71
2019-04-26T18:55:59.329Z,61.67
2019-04-26T18:58:30.319Z,61.71
2019-04-26T19:01:05.092Z,62.40
2019-04-26T19:03:33.771Z,62.56
2019-04-26T19:06:05.596Z,62.84
2019-04-26T19:08:45.479Z,63.50
2019-04-26T19:11:07.585Z,64.49
2019-04-26T19:13:46.599Z,65.76
2019-04-26T19:16:46.367Z,66.01
2019-04-26T19:19:26.022Z,65.69
2019-04-26T19:22:00.883Z,65.36
2019-04-26T19:24:29.837Z,66.87
2019-04-26T19:26:59.784Z,67.33
2019-04-26T19:29:33.854Z,67.71
2019-04-26T19:32:03.378Z,67.86
2019-04-26T19:34:31.623Z,67.87
2019-04-26T19:37:03.290Z,68.36
2019-04-26T19:39:33.749Z,68.75
2019-04-26T19:42:02.548Z,69.82
2019-04-26T19:44:31.609Z,69.75
2019-04-26T19:47:18.945Z,70.59
2019-04-26T19:50:18.102Z,70.37
2019-04-26T19:53:01.746Z,70.94
2019-04-26T19:55:56.355Z,71.64
2019-04-26T19:58:28.127Z,72.31
2019-04-26T20:00:57.410Z,72.37
2019-04-26T20:03:27.008Z,72.24
2019-04-26T20:05:58.129Z,72.25
2019-04-26T20:08:29.435Z,72.48
2019-04-26T20:10:58.696Z,72.39
2019-04-26T20:13:28.425Z,72.35
2019-04-26T20:16:02.719Z,72.72
2019-04-26T20:18:32.825Z,73.19
2019-04-26T20:20:59.698Z,73.58
2019-04-26T20:23:31.714Z,73.69
2019-04-26T20:26:07.231Z,73.21
2019-04-26T20:28:35.870Z,74.09
2019-04-26T20:31:22.146Z,74.51
2019-04-26T20:33:51.375Z,74.67
2019-04-26T20:36:21.627Z,74.70
2019-04-26T20:38:52.173Z,74.39
2019-04-26T20:41:22.033Z,74.38
2019-04-26T20:44:03.059Z,74.70
2019-04-26T20:46:24.911Z,74.58
2019-04-26T20:48:53.699Z,74.72
2019-04-26T20:51:24.213Z,75.27
2019-04-26T20:53:55.475Z,76.04
2019-04-26T20:56:24.742Z,75.84
2019-04-26T20:58:54.038Z,76.13
2019-04-26T21:01:24.235Z,76.11
2019-04-26T21:03:54.490Z,75.99
2019-04-26T21:06:23.730Z,76.42
2019-04-26T21:08:54.107Z,76.60
2019-04-26T21:11:23.913Z,77.56
2019-04-26T21:13:53.270Z,77.30
2019-04-26T21:16:23.012Z,77.24
2019-04-26T21:18:52.591Z,77.37
2019-04-26T21:21:21.894Z,77.30
2019-04-26T21:23:51.004Z,77.69
2019-04-26T21:26:29.696Z,77.69
2019-04-26T21:29:15.401Z,78.27
2019-04-26T21:31:51.987Z,78.29
2019-04-26T21:34:26.242Z,78.82
2019-04-26T21:37:04.035Z,79.26
2019-04-26T21:39:39.490Z,79.19
2019-04-26T21:42:08.351Z,79.16
2019-04-26T21:44:36.590Z,79.45
2019-04-26T21:47:04.886Z,79.54
2019-04-26T21:49:35.770Z,80.11
2019-04-26T21:52:03.303Z,80.52
2019-04-26T21:54:32.924Z,79.92
2019-04-26T21:57:01.195Z,79.15
2019-04-26T21:59:35.238Z,78.54
2019-04-26T22:01:59.472Z,78.39
2019-04-26T22:04:28.735Z,78.25
2019-04-26T22:06:59.777Z,78.21
2019-04-26T22:09:52.934Z,78.19
2019-04-26T22:12:23.188Z,78.23
2019-04-26T22:15:00.684Z,78.81
2019-04-26T22:17:40.704Z,78.95
2019-04-26T22:20:26.599Z,79.60
2019-04-26T22:23:06.556Z,79.80
2019-04-26T22:25:38.358Z,79.81
2019-04-26T22:28:06.624Z,80.24
2019-04-26T22:30:34.894Z,80.31
2019-04-26T22:33:03.203Z,80.40
2019-04-26T22:35:31.615Z,80.43
2019-04-26T22:38:00.123Z,80.73
2019-04-26T22:40:28.341Z,80.85
2019-04-26T22:43:05.637Z,80.98
2019-04-26T22:45:51.135Z,80.91
2019-04-26T22:48:25.739Z,80.62
2019-04-26T22:50:58.533Z,80.36
2019-04-26T22:53:25.816Z,80.87
2019-04-26T22:55:53.739Z,81.07
2019-04-26T22:58:25.461Z,81.12
2019-04-26T23:00:53.868Z,81.64
2019-04-26T23:03:23.983Z,81.68
2019-04-26T23:05:53.356Z,81.69
2019-04-26T23:08:23.630Z,81.58
2019-04-26T23:10:53.496Z,81.42
2019-04-26T23:13:41.340Z,81.43
2019-04-26T23:16:33.667Z,81.75
2019-04-26T23:19:25.120Z,81.86
2019-04-26T23:21:56.085Z,82.06
2019-04-26T23:24:24.207Z,81.93
2019-04-26T23:26:54.111Z,82.09
2019-04-26T23:29:22.812Z,82.32
2019-04-26T23:31:50.998Z,81.44
2019-04-26T23:34:19.248Z,81.08
2019-04-26T23:36:49.175Z,81.18
2019-04-26T23:39:17.337Z,81.49
2019-04-26T23:41:45.600Z,81.65
2019-04-26T23:44:15.494Z,81.65
2019-04-26T23:46:43.720Z,81.15
2019-04-26T23:49:11.990Z,80.68
2019-04-26T23:51:43.106Z,80.63
2019-04-26T23:54:10.071Z,80.73
2019-04-26T23:56:38.337Z,80.83
2019-04-26T23:59:06.610Z,80.79
